createdAt,value
2019-05-06T00:09:47.000Z,19.76
2019-05-06T00:30:04.000Z,19.71
2019-05-06T00:50:21.000Z,19.69
2019-05-06T01:10:38.000Z,19.71
2019-05-06T01:30:55.000Z,19.69
2019-05-06T01:51:11.000Z,19.67
2019-05-06T02:11:29.000Z,19.65
2019-05-06T02:31:46.000Z,19.62
2019-05-06T02:52:03.000Z,19.57
2019-05-06T03:12:20.000Z,19.53
2019-05-06T03:32:36.000Z,19.53
2019-05-06T03:52:53.000Z,19.54
2019-05-06T04:13:10.000Z,19.57
2019-05-06T04:33:27.000Z,19.62
2019-05-06T04:53:44.000Z,19.69
2019-05-06T05:14:01.000Z,19.78
2019-05-06T05:34:18.000Z,19.84
2019-05-06T05:54:35.000Z,19.96
2019-05-06T06:14:52.000Z,21.87
2019-05-06T06:35:09.000Z,23.71
2019-05-06T06:55:25.000Z,24.08
2019-05-06T07:15:42.000Z,22.99
2019-05-06T07:35:59.000Z,24.08
2019-05-06T07:56:16.000Z,23.78
2019-05-06T08:16:33.000Z,22.72
2019-05-06T08:36:50.000Z,22.43
2019-05-06T08:57:07.000Z,21.48
2019-05-06T09:17:24.000Z,21.94
2019-05-06T09:37:41.000Z,21.97
2019-05-06T09:57:58.000Z,21.96
2019-05-06T10:18:15.000Z,21.91
2019-05-06T10:38:31.000Z,21.59
2019-05-06T10:58:48.000Z,21.59
2019-05-06T11:19:05.000Z,21.94
2019-05-06T11:39:22.000Z,21.79
2019-05-06T11:59:39.000Z,22.27
2019-05-06T12:19:56.000Z,22.24
2019-05-06T12:40:13.000Z,22.55
2019-05-06T13:00:30.000Z,22.34
2019-05-06T13:20:47.000Z,22.36
2019-05-06T13:41:04.000Z,22.59
2019-05-06T14:01:20.000Z,22.49
2019-05-06T14:21:37.000Z,22.36
2019-05-06T14:41:54.000Z,22.87
2019-05-06T15:02:11.000Z,22.48
2019-05-06T15:22:28.000Z,22.26
2019-05-06T15:42:45.000Z,22.08
